sensor_id;sensor_type;location;lat;lon;timestamp;pressure;altitude;pressure_sealevel;temperature;humidity
72721;BME280;60835;50.974;10.322;2024-01-27T00:00:13;99835.56;;;4.78;100.00
72721;BME280;60835;50.974;10.322;2024-01-27T00:02:40;99839.28;;;4.74;100.00
72721;BME280;60835;50.974;10.322;2024-01-27T00:05:08;99834.38;;;4.68;100.00
72721;BME280;60835;50.974;10.322;2024-01-27T00:07:34;99833.00;;;4.61;100.00
72721;BME280;60835;50.974;10.322;2024-01-27T00:10:02;99840.13;;;4.59;100.00
72721;BME280;60835;50.974;10.322;2024-01-27T00:12:28;99834.13;;;4.57;100.00
72721;BME280;60835;50.974;10.322;2024-01-27T00:14:55;99846.13;;;4.61;100.00
72721;BME280;60835;50.974;10.322;2024-01-27T00:17:21;99855.53;;;4.65;100.00
72721;BME280;60835;50.974;10.322;2024-01-27T00:19:51;99851.78;;;4.54;100.00
72721;BME280;60835;50.974;10.322;2024-01-27T00:22:17;99866.00;;;4.65;100.00
72721;BME280;60835;50.974;10.322;2024-01-27T00:24:44;99878.91;;;4.53;100.00
72721;BME280;60835;50.974;10.322;2024-01-27T00:27:10;99880.69;;;4.52;100.00
72721;BME280;60835;50.974;10.322;2024-01-27T00:29:37;99880.44;;;4.57;100.00
72721;BME280;60835;50.974;10.322;2024-01-27T00:32:04;99891.44;;;4.63;100.00
72721;BME280;60835;50.974;10.322;2024-01-27T00:34:30;99882.25;;;4.72;100.00
72721;BME280;60835;50.974;10.322;2024-01-27T00:36:57;99890.88;;;4.74;100.00
72721;BME280;60835;50.974;10.322;2024-01-27T00:39:23;99898.22;;;4.67;100.00
72721;BME280;60835;50.974;10.322;2024-01-27T00:41:51;99888.66;;;4.66;100.00
72721;BME280;60835;50.974;10.322;2024-01-27T00:44:18;99886.97;;;4.65;100.00
72721;BME280;60835;50.974;10.322;2024-01-27T00:46:45;99888.66;;;4.66;100.00
72721;BME280;60835;50.974;10.322;2024-01-27T00:49:12;99903.38;;;4.69;100.00
72721;BME280;60835;50.974;10.322;2024-01-27T00:51:38;99906.78;;;4.71;100.00
72721;BME280;60835;50.974;10.322;2024-01-27T00:54:06;99904.72;;;4.60;100.00
72721;BME280;60835;50.974;10.322;2024-01-27T00:56:32;99917.94;;;4.74;100.00
72721;BME280;60835;50.974;10.322;2024-01-27T00:58:59;99921.97;;;4.64;100.00
72721;BME280;60835;50.974;10.322;2024-01-27T01:01:26;99920.13;;;4.66;100.00
72721;BME280;60835;50.974;10.322;2024-01-27T01:03:52;99919.50;;;4.61;100.00
72721;BME280;60835;50.974;10.322;2024-01-27T01:06:19;99937.53;;;4.67;100.00
72721;BME280;60835;50.974;10.322;2024-01-27T01:08:46;99929.69;;;4.67;100.00
72721;BME280;60835;50.974;10.322;2024-01-27T01:11:12;99922.81;;;4.65;100.00
72721;BME280;60835;50.974;10.322;2024-01-27T01:13:39;99928.13;;;4.63;100.00
72721;BME280;60835;50.974;10.322;2024-01-27T01:16:06;99912.50;;;4.62;100.00
72721;BME280;60835;50.974;10.322;2024-01-27T01:18:34;99915.97;;;4.62;100.00
72721;BME280;60835;50.974;10.322;2024-01-27T01:21:00;99925.19;;;4.69;100.00
72721;BME280;60835;50.974;10.322;2024-01-27T01:23:27;99932.00;;;4.73;100.00
72721;BME280;60835;50.974;10.322;2024-01-27T01:25:53;99940.78;;;4.72;100.00
72721;BME280;60835;50.974;10.322;2024-01-27T01:28:20;99939.75;;;4.75;100.00
72721;BME280;60835;50.974;10.322;2024-01-27T01:30:46;99939.91;;;4.72;100.00
72721;BME280;60835;50.974;10.322;2024-01-27T01:33:13;99941.88;;;4.68;100.00
72721;BME280;60835;50.974;10.322;2024-01-27T01:35:40;99948.19;;;4.64;100.00
72721;BME280;60835;50.974;10.322;2024-01-27T01:38:06;99945.13;;;4.56;100.00
72721;BME280;60835;50.974;10.322;2024-01-27T01:40:33;99940.03;;;4.53;100.00
72721;BME280;60835;50.974;10.322;2024-01-27T01:42:59;99951.91;;;4.60;100.00
72721;BME280;60835;50.974;10.322;2024-01-27T01:45:26;99945.28;;;4.53;100.00
72721;BME280;60835;50.974;10.322;2024-01-27T01:47:52;99959.78;;;4.60;100.00
72721;BME280;60835;50.974;10.322;2024-01-27T01:50:20;99965.84;;;4.61;100.00
72721;BME280;60835;50.974;10.322;2024-01-27T01:52:48;99956.56;;;4.55;100.00
72721;BME280;60835;50.974;10.322;2024-01-27T01:55:15;99976.72;;;4.53;100.00
72721;BME280;60835;50.974;10.322;2024-01-27T01:57:43;99964.88;;;4.46;100.00
72721;BME280;60835;50.974;10.322;2024-01-27T02:00:11;99978.44;;;4.54;100.00
72721;BME280;60835;50.974;10.322;2024-01-27T02:02:43;99973.34;;;4.51;100.00
72721;BME280;60835;50.974;10.322;2024-01-27T02:05:10;99983.84;;;4.51;100.00
72721;BME280;60835;50.974;10.322;2024-01-27T02:07:37;99983.69;;;4.54;100.00
72721;BME280;60835;50.974;10.322;2024-01-27T02:10:05;99980.19;;;4.54;100.00
72721;BME280;60835;50.974;10.322;2024-01-27T02:12:32;99981.81;;;4.56;100.00
72721;BME280;60835;50.974;10.322;2024-01-27T02:14:58;99972.75;;;4.46;100.00
72721;BME280;60835;50.974;10.322;2024-01-27T02:17:25;99969.13;;;4.49;100.00
72721;BME280;60835;50.974;10.322;2024-01-27T02:19:52;99980.91;;;4.40;100.00
72721;BME280;60835;50.974;10.322;2024-01-27T02:22:18;99981.06;;;4.37;100.00
72721;BME280;60835;50.974;10.322;2024-01-27T02:24:45;99998.47;;;4.38;100.00
72721;BME280;60835;50.974;10.322;2024-01-27T02:27:12;99994.94;;;4.39;100.00
72721;BME280;60835;50.974;10.322;2024-01-27T02:29:39;99990.47;;;4.41;100.00
72721;BME280;60835;50.974;10.322;2024-01-27T02:32:06;99990.31;;;4.44;100.00
72721;BME280;60835;50.974;10.322;2024-01-27T02:34:33;99996.72;;;4.39;100.00
72721;BME280;60835;50.974;10.322;2024-01-27T02:37:00;99996.88;;;4.36;100.00
72721;BME280;60835;50.974;10.322;2024-01-27T02:39:26;100004.63;;;4.37;100.00
72721;BME280;60835;50.974;10.322;2024-01-27T02:41:53;99996.78;;;4.37;100.00
72721;BME280;60835;50.974;10.322;2024-01-27T02:44:19;99986.06;;;4.24;100.00
72721;BME280;60835;50.974;10.322;2024-01-27T02:46:45;99982.44;;;4.27;100.00
72721;BME280;60835;50.974;10.322;2024-01-27T02:49:12;99995.41;;;4.30;100.00
72721;BME280;60835;50.974;10.322;2024-01-27T02:51:39;99966.41;;;4.16;100.00
72721;BME280;60835;50.974;10.322;2024-01-27T02:54:05;99991.38;;;4.40;100.00
72721;BME280;60835;50.974;10.322;2024-01-27T02:56:32;99998.94;;;4.29;100.00
72721;BME280;60835;50.974;10.322;2024-01-27T02:58:58;99987.09;;;4.22;100.00
72721;BME280;60835;50.974;10.322;2024-01-27T03:01:24;99997.25;;;4.28;100.00
72721;BME280;60835;50.974;10.322;2024-01-27T03:03:51;100002.34;;;4.31;100.00
72721;BME280;60835;50.974;10.322;2024-01-27T03:06:17;99993.31;;;4.19;100.00
72721;BME280;60835;50.974;10.322;2024-01-27T03:08:44;100000.13;;;4.23;100.00
72721;BME280;60835;50.974;10.322;2024-01-27T03:11:11;99992.63;;;4.16;100.00
72721;BME280;60835;50.974;10.322;2024-01-27T03:13:38;100012.91;;;4.12;100.00
72721;BME280;60835;50.974;10.322;2024-01-27T03:16:11;100009.81;;;4.04;100.00
72721;BME280;60835;50.974;10.322;2024-01-27T03:18:37;100015.03;;;4.04;100.00
72721;BME280;60835;50.974;10.322;2024-01-27T03:21:06;100025.44;;;4.06;100.00
72721;BME280;60835;50.974;10.322;2024-01-27T03:23:34;100025.94;;;3.95;100.00
72721;BME280;60835;50.974;10.322;2024-01-27T03:26:02;100024.84;;;3.82;100.00
72721;BME280;60835;50.974;10.322;2024-01-27T03:28:30;100031.66;;;3.86;100.00
72721;BME280;60835;50.974;10.322;2024-01-27T03:30:57;100034.59;;;3.79;100.00
72721;BME280;60835;50.974;10.322;2024-01-27T03:33:26;100025.31;;;3.73;100.00
72721;BME280;60835;50.974;10.322;2024-01-27T03:35:56;100028.13;;;3.68;100.00
72721;BME280;60835;50.974;10.322;2024-01-27T03:38:23;100028.97;;;3.69;100.00
72721;BME280;60835;50.974;10.322;2024-01-27T03:40:49;100011.31;;;3.55;100.00
72721;BME280;60835;50.974;10.322;2024-01-27T03:43:16;100016.63;;;3.54;100.00
72721;BME280;60835;50.974;10.322;2024-01-27T03:45:43;100024.53;;;3.52;100.00
72721;BME280;60835;50.974;10.322;2024-01-27T03:48:09;100014.06;;;3.52;100.00
72721;BME280;60835;50.974;10.322;2024-01-27T03:50:36;100024.59;;;3.51;100.00
72721;BME280;60835;50.974;10.322;2024-01-27T03:53:02;100025.81;;;3.44;100.00
72721;BME280;60835;50.974;10.322;2024-01-27T03:55:29;100027.72;;;3.40;100.00
72721;BME280;60835;50.974;10.322;2024-01-27T03:57:55;100033.19;;;3.36;100.00
72721;BME280;60835;50.974;10.322;2024-01-27T04:00:22;100040.16;;;3.35;100.00
72721;BME280;60835;50.974;10.322;2024-01-27T04:02:48;100035.22;;;3.29;100.00
72721;BME280;60835;50.974;10.322;2024-01-27T04:05:15;100009.63;;;3.17;100.00
72721;BME280;60835;50.974;10.322;2024-01-27T04:07:42;100046.31;;;3.34;100.00
72721;BME280;60835;50.974;10.322;2024-01-27T04:10:09;100046.53;;;3.30;100.00
72721;BME280;60835;50.974;10.322;2024-01-27T04:12:36;100042.41;;;3.24;100.00
72721;BME280;60835;50.974;10.322;2024-01-27T04:15:02;100056.28;;;3.26;100.00
72721;BME280;60835;50.974;10.322;2024-01-27T04:17:29;100059.22;;;3.19;100.00
72721;BME280;60835;50.974;10.322;2024-01-27T04:19:56;100052.47;;;3.15;100.00
72721;BME280;60835;50.974;10.322;2024-01-27T04:22:22;100060.22;;;3.16;100.00
72721;BME280;60835;50.974;10.322;2024-01-27T04:24:49;100071.59;;;3.15;100.00
72721;BME280;60835;50.974;10.322;2024-01-27T04:27:15;100066.44;;;3.14;100.00
72721;BME280;60835;50.974;10.322;2024-01-27T04:29:42;100081.16;;;3.16;100.00
72721;BME280;60835;50.974;10.322;2024-01-27T04:32:09;100077.59;;;2.98;100.00
72721;BME280;60835;50.974;10.322;2024-01-27T04:34:35;100090.84;;;2.94;100.00
72721;BME280;60835;50.974;10.322;2024-01-27T04:37:02;100083.16;;;2.91;100.00
72721;BME280;60835;50.974;10.322;2024-01-27T04:39:29;100094.25;;;2.96;100.00
72721;BME280;60835;50.974;10.322;2024-01-27T04:41:56;100098.19;;;2.86;100.00
72721;BME280;60835;50.974;10.322;2024-01-27T04:44:25;100104.25;;;2.86;100.00
72721;BME280;60835;50.974;10.322;2024-01-27T04:46:52;100100.66;;;2.69;100.00
72721;BME280;60835;50.974;10.322;2024-01-27T04:49:18;100103.41;;;2.66;100.00
72721;BME280;60835;50.974;10.322;2024-01-27T04:51:46;100098.94;;;2.68;100.00
72721;BME280;60835;50.974;10.322;2024-01-27T04:54:13;100089.03;;;2.56;100.00
72721;BME280;60835;50.974;10.322;2024-01-27T04:56:39;100097.59;;;2.59;100.00
72721;BME280;60835;50.974;10.322;2024-01-27T04:59:06;100108.69;;;2.64;100.00
72721;BME280;60835;50.974;10.322;2024-01-27T05:01:33;100095.97;;;2.57;100.00
72721;BME280;60835;50.974;10.322;2024-01-27T05:04:00;100095.31;;;2.72;100.00
72721;BME280;60835;50.974;10.322;2024-01-27T05:06:26;100103.03;;;2.75;100.00
72721;BME280;60835;50.974;10.322;2024-01-27T05:08:53;100098.94;;;2.68;100.00
72721;BME280;60835;50.974;10.322;2024-01-27T05:11:32;100099.94;;;2.85;100.00
72721;BME280;60835;50.974;10.322;2024-01-27T05:14:01;100105.63;;;2.75;100.00
72721;BME280;60835;50.974;10.322;2024-01-27T05:16:28;100110.88;;;2.75;100.00
72721;BME280;60835;50.974;10.322;2024-01-27T05:18:54;100117.78;;;2.76;100.00
72721;BME280;60835;50.974;10.322;2024-01-27T05:21:21;100126.00;;;2.87;100.00
72721;BME280;60835;50.974;10.322;2024-01-27T05:23:48;100117.41;;;2.85;100.00
72721;BME280;60835;50.974;10.322;2024-01-27T05:26:15;100104.78;;;2.74;100.00
72721;BME280;60835;50.974;10.322;2024-01-27T05:28:41;100102.91;;;2.78;100.00
72721;BME280;60835;50.974;10.322;2024-01-27T05:31:08;100105.75;;;2.72;100.00
72721;BME280;60835;50.974;10.322;2024-01-27T05:33:38;100088.13;;;2.77;100.00
72721;BME280;60835;50.974;10.322;2024-01-27T05:36:06;100079.28;;;2.79;100.00
72721;BME280;60835;50.974;10.322;2024-01-27T05:38:32;100098.88;;;2.89;100.00
72721;BME280;60835;50.974;10.322;2024-01-27T05:41:05;100089.06;;;2.94;100.00
72721;BME280;60835;50.974;10.322;2024-01-27T05:43:31;100094.00;;;2.82;100.00
72721;BME280;60835;50.974;10.322;2024-01-27T05:45:58;100096.59;;;2.82;100.00
72721;BME280;60835;50.974;10.322;2024-01-27T05:48:24;100092.03;;;2.67;100.00
72721;BME280;60835;50.974;10.322;2024-01-27T05:50:58;100091.38;;;2.82;100.00
72721;BME280;60835;50.974;10.322;2024-01-27T05:53:25;100092.63;;;2.73;100.00
72721;BME280;60835;50.974;10.322;2024-01-27T05:55:52;100094.13;;;2.79;100.00
72721;BME280;60835;50.974;10.322;2024-01-27T05:58:23;100101.63;;;2.66;100.00
72721;BME280;60835;50.974;10.322;2024-01-27T06:00:49;100099.09;;;2.65;100.00
72721;BME280;60835;50.974;10.322;2024-01-27T06:03:16;100088.66;;;2.65;100.00
72721;BME280;60835;50.974;10.322;2024-01-27T06:05:44;100082.75;;;2.80;100.00
72721;BME280;60835;50.974;10.322;2024-01-27T06:08:11;100088.97;;;2.77;100.00
72721;BME280;60835;50.974;10.322;2024-01-27T06:10:37;100102.22;;;2.73;100.00
72721;BME280;60835;50.974;10.322;2024-01-27T06:13:04;100102.09;;;2.76;100.00
72721;BME280;60835;50.974;10.322;2024-01-27T06:15:31;100098.25;;;2.64;100.00
72721;BME280;60835;50.974;10.322;2024-01-27T06:17:58;100100.41;;;2.75;100.00
72721;BME280;60835;50.974;10.322;2024-01-27T06:20:25;100096.81;;;2.77;100.00
72721;BME280;60835;50.974;10.322;2024-01-27T06:22:52;100105.50;;;2.78;100.00
72721;BME280;60835;50.974;10.322;2024-01-27T06:25:20;100102.50;;;2.67;100.00
72721;BME280;60835;50.974;10.322;2024-01-27T06:27:47;100091.25;;;2.65;100.00
72721;BME280;60835;50.974;10.322;2024-01-27T06:30:14;100084.25;;;2.65;100.00
72721;BME280;60835;50.974;10.322;2024-01-27T06:32:42;100076.97;;;2.52;100.00
72721;BME280;60835;50.974;10.322;2024-01-27T06:35:09;100073.34;;;2.56;100.00
72721;BME280;60835;50.974;10.322;2024-01-27T06:37:36;100083.78;;;2.56;100.00
72721;BME280;60835;50.974;10.322;2024-01-27T06:40:03;100079.69;;;2.50;100.00
72721;BME280;60835;50.974;10.322;2024-01-27T06:42:30;100083.50;;;2.41;100.00
72721;BME280;60835;50.974;10.322;2024-01-27T06:44:57;100088.03;;;2.38;100.00
72721;BME280;60835;50.974;10.322;2024-01-27T06:47:24;100084.16;;;2.46;100.00
72721;BME280;60835;50.974;10.322;2024-01-27T06:49:51;100102.19;;;2.32;100.00
72721;BME280;60835;50.974;10.322;2024-01-27T06:52:18;100088.06;;;2.36;100.00
72721;BME280;60835;50.974;10.322;2024-01-27T06:54:44;100075.69;;;2.41;100.00
72721;BME280;60835;50.974;10.322;2024-01-27T06:57:23;100079.22;;;2.40;100.00
72721;BME280;60835;50.974;10.322;2024-01-27T06:59:51;100092.19;;;2.42;100.00
72721;BME280;60835;50.974;10.322;2024-01-27T07:02:26;100081.72;;;2.43;100.00
72721;BME280;60835;50.974;10.322;2024-01-27T07:04:55;100082.84;;;2.36;100.00
72721;BME280;60835;50.974;10.322;2024-01-27T07:07:25;100082.50;;;2.45;100.00
72721;BME280;60835;50.974;10.322;2024-01-27T07:09:52;100080.66;;;2.47;100.00
72721;BME280;60835;50.974;10.322;2024-01-27T07:12:19;100077.91;;;2.51;100.00
72721;BME280;60835;50.974;10.322;2024-01-27T07:14:46;100075.19;;;2.54;100.00
72721;BME280;60835;50.974;10.322;2024-01-27T07:17:12;100055.59;;;2.43;100.00
72721;BME280;60835;50.974;10.322;2024-01-27T07:19:39;100076.97;;;2.52;100.00
72721;BME280;60835;50.974;10.322;2024-01-27T07:22:06;100064.78;;;2.52;100.00
72721;BME280;60835;50.974;10.322;2024-01-27T07:24:33;100091.91;;;2.70;100.00
72721;BME280;60835;50.974;10.322;2024-01-27T07:27:00;100091.09;;;2.68;100.00
72721;BME280;60835;50.974;10.322;2024-01-27T07:29:32;100100.91;;;2.63;100.00
72721;BME280;60835;50.974;10.322;2024-01-27T07:32:01;100104.44;;;2.62;100.00
72721;BME280;60835;50.974;10.322;2024-01-27T07:34:28;100103.47;;;2.64;100.00
72721;BME280;60835;50.974;10.322;2024-01-27T07:36:55;100092.53;;;2.55;100.00
72721;BME280;60835;50.974;10.322;2024-01-27T07:39:21;100112.53;;;2.56;100.00
72721;BME280;60835;50.974;10.322;2024-01-27T07:41:49;100106.25;;;2.60;100.00
72721;BME280;60835;50.974;10.322;2024-01-27T07:44:15;100098.63;;;2.55;100.00
72721;BME280;60835;50.974;10.322;2024-01-27T07:46:42;100092.16;;;2.64;100.00
72721;BME280;60835;50.974;10.322;2024-01-27T07:49:08;100084.19;;;2.67;100.00
72721;BME280;60835;50.974;10.322;2024-01-27T07:51:35;100084.59;;;2.78;100.00
72721;BME280;60835;50.974;10.322;2024-01-27T07:54:03;100093.13;;;2.81;100.00
72721;BME280;60835;50.974;10.322;2024-01-27T07:56:29;100086.03;;;2.85;100.00
72721;BME280;60835;50.974;10.322;2024-01-27T07:58:56;100094.50;;;2.90;100.00
72721;BME280;60835;50.974;10.322;2024-01-27T08:01:23;100100.66;;;2.89;100.00
72721;BME280;60835;50.974;10.322;2024-01-27T08:03:50;100109.00;;;3.17;100.00
72721;BME280;60835;50.974;10.322;2024-01-27T08:06:18;100110.28;;;3.27;100.00
72721;BME280;60835;50.974;10.322;2024-01-27T08:08:46;100118.47;;;3.20;100.00
72721;BME280;60835;50.974;10.322;2024-01-27T08:11:17;100121.66;;;3.46;100.00
72721;BME280;60835;50.974;10.322;2024-01-27T08:13:44;100135.38;;;3.51;100.00
72721;BME280;60835;50.974;10.322;2024-01-27T08:16:10;100139.78;;;3.69;100.00
72721;BME280;60835;50.974;10.322;2024-01-27T08:18:39;100150.59;;;3.81;100.00
72721;BME280;60835;50.974;10.322;2024-01-27T08:21:10;100148.66;;;4.03;100.00
72721;BME280;60835;50.974;10.322;2024-01-27T08:23:38;100148.34;;;4.46;100.00
72721;BME280;60835;50.974;10.322;2024-01-27T08:26:05;100164.00;;;4.82;100.00
72721;BME280;60835;50.974;10.322;2024-01-27T08:28:31;100162.19;;;5.51;100.00
72721;BME280;60835;50.974;10.322;2024-01-27T08:30:58;100188.63;;;5.48;100.00
72721;BME280;60835;50.974;10.322;2024-01-27T08:33:26;100204.91;;;5.03;100.00
72721;BME280;60835;50.974;10.322;2024-01-27T08:35:53;100201.28;;;5.40;100.00
72721;BME280;60835;50.974;10.322;2024-01-27T08:38:19;100214.56;;;5.37;100.00
72721;BME280;60835;50.974;10.322;2024-01-27T08:40:46;100215.78;;;5.30;100.00
72721;BME280;60835;50.974;10.322;2024-01-27T08:43:12;100210.34;;;5.67;100.00
72721;BME280;60835;50.974;10.322;2024-01-27T08:45:39;100215.69;;;5.48;100.00
72721;BME280;60835;50.974;10.322;2024-01-27T08:48:09;100218.63;;;5.60;100.00
72721;BME280;60835;50.974;10.322;2024-01-27T08:50:38;100215.75;;;5.64;100.00
72721;BME280;60835;50.974;10.322;2024-01-27T08:53:05;100218.88;;;5.38;100.00
72721;BME280;60835;50.974;10.322;2024-01-27T08:55:32;100215.81;;;5.80;100.00
72721;BME280;60835;50.974;10.322;2024-01-27T08:57:58;100204.84;;;6.04;100.00
72721;BME280;60835;50.974;10.322;2024-01-27T09:00:25;100202.34;;;6.50;100.00
72721;BME280;60835;50.974;10.322;2024-01-27T09:02:52;100221.72;;;5.83;100.00
72721;BME280;60835;50.974;10.322;2024-01-27T09:05:19;100223.16;;;5.90;100.00
72721;BME280;60835;50.974;10.322;2024-01-27T09:07:45;100240.94;;;5.51;100.00
72721;BME280;60835;50.974;10.322;2024-01-27T09:10:12;100204.97;;;6.95;100.00
72721;BME280;60835;50.974;10.322;2024-01-27T09:12:42;100178.94;;;6.30;100.00
72721;BME280;60835;50.974;10.322;2024-01-27T09:15:09;100198.66;;;7.13;100.00
72721;BME280;60835;50.974;10.322;2024-01-27T09:17:36;100204.88;;;7.26;100.00
72721;BME280;60835;50.974;10.322;2024-01-27T09:20:03;100194.34;;;7.26;100.00
72721;BME280;60835;50.974;10.322;2024-01-27T09:22:30;100178.50;;;7.12;100.00
72721;BME280;60835;50.974;10.322;2024-01-27T09:24:57;100183.81;;;7.26;100.00
72721;BME280;60835;50.974;10.322;2024-01-27T09:27:24;100190.03;;;7.40;100.00
72721;BME280;60835;50.974;10.322;2024-01-27T09:29:50;100178.19;;;7.32;100.00
72721;BME280;60835;50.974;10.322;2024-01-27T09:32:17;100157.78;;;7.50;100.00
72721;BME280;60835;50.974;10.322;2024-01-27T09:34:44;100150.72;;;7.22;100.00
72721;BME280;60835;50.974;10.322;2024-01-27T09:37:11;100145.00;;;8.41;100.00
72721;BME280;60835;50.974;10.322;2024-01-27T09:39:38;100111.97;;;8.22;100.00
72721;BME280;60835;50.974;10.322;2024-01-27T09:42:06;100083.94;;;9.12;100.00
72721;BME280;60835;50.974;10.322;2024-01-27T09:44:34;100104.78;;;8.65;100.00
72721;BME280;60835;50.974;10.322;2024-01-27T09:47:02;100066.69;;;8.29;100.00
72721;BME280;60835;50.974;10.322;2024-01-27T09:49:30;100074.94;;;8.37;100.00
72721;BME280;60835;50.974;10.322;2024-01-27T09:51:59;100070.94;;;7.91;100.00
72721;BME280;60835;50.974;10.322;2024-01-27T09:54:25;100103.53;;;7.48;100.00
72721;BME280;60835;50.974;10.322;2024-01-27T09:56:54;100081.31;;;8.87;100.00
72721;BME280;60835;50.974;10.322;2024-01-27T09:59:22;100063.22;;;9.06;100.00
72721;BME280;60835;50.974;10.322;2024-01-27T10:01:49;100053.50;;;9.19;100.00
72721;BME280;60835;50.974;10.322;2024-01-27T10:04:19;100038.00;;;9.02;100.00
72721;BME280;60835;50.974;10.322;2024-01-27T10:06:48;100049.06;;;9.45;100.00
72721;BME280;60835;50.974;10.322;2024-01-27T10:09:17;100031.81;;;9.88;100.00
72721;BME280;60835;50.974;10.322;2024-01-27T10:11:47;99982.72;;;10.55;100.00
72721;BME280;60835;50.974;10.322;2024-01-27T10:14:14;99964.66;;;10.49;100.00
72721;BME280;60835;50.974;10.322;2024-01-27T10:16:42;99947.16;;;10.01;100.00
72721;BME280;60835;50.974;10.322;2024-01-27T10:19:15;99942.28;;;10.42;100.00
72721;BME280;60835;50.974;10.322;2024-01-27T10:21:44;99924.06;;;10.94;100.00
72721;BME280;60835;50.974;10.322;2024-01-27T10:24:11;99916.78;;;9.71;100.00
72721;BME280;60835;50.974;10.322;2024-01-27T10:26:38;99924.78;;;11.08;100.00
72721;BME280;60835;50.974;10.322;2024-01-27T10:29:05;99918.09;;;10.12;100.00
72721;BME280;60835;50.974;10.322;2024-01-27T10:31:33;99879.38;;;11.12;100.00
72721;BME280;60835;50.974;10.322;2024-01-27T10:34:00;99842.22;;;11.45;100.00
72721;BME280;60835;50.974;10.322;2024-01-27T10:36:40;99821.03;;;11.98;100.00
72721;BME280;60835;50.974;10.322;2024-01-27T10:39:17;99796.88;;;12.21;100.00
72721;BME280;60835;50.974;10.322;2024-01-27T10:41:45;99874.19;;;12.58;100.00
72721;BME280;60835;50.974;10.322;2024-01-27T10:44:18;100484.25;;;11.85;100.00
72721;BME280;60835;50.974;10.322;2024-01-27T10:46:47;100570.63;;;11.64;100.00
72721;BME280;60835;50.974;10.322;2024-01-27T10:49:15;100646.34;;;11.93;100.00
72721;BME280;60835;50.974;10.322;2024-01-27T10:51:54;100680.31;;;11.76;100.00
72721;BME280;60835;50.974;10.322;2024-01-27T10:54:26;100704.03;;;11.52;100.00
72721;BME280;60835;50.974;10.322;2024-01-27T10:56:56;100737.34;;;12.32;100.00
72721;BME280;60835;50.974;10.322;2024-01-27T10:59:26;100811.19;;;12.99;100.00
72721;BME280;60835;50.974;10.322;2024-01-27T11:01:54;100855.63;;;11.98;100.00
72721;BME280;60835;50.974;10.322;2024-01-27T11:04:21;100846.88;;;11.44;100.00
72721;BME280;60835;50.974;10.322;2024-01-27T11:06:49;100881.47;;;11.28;100.00
72721;BME280;60835;50.974;10.322;2024-01-27T11:09:17;100874.72;;;11.90;100.00
72721;BME280;60835;50.974;10.322;2024-01-27T11:11:45;100892.41;;;11.77;100.00
72721;BME280;60835;50.974;10.322;2024-01-27T11:14:13;100905.25;;;11.30;100.00
72721;BME280;60835;50.974;10.322;2024-01-27T11:16:40;100897.13;;;12.11;100.00
72721;BME280;60835;50.974;10.322;2024-01-27T11:19:11;100899.09;;;11.70;100.00
72721;BME280;60835;50.974;10.322;2024-01-27T11:21:39;100906.41;;;11.79;100.00
72721;BME280;60835;50.974;10.322;2024-01-27T11:24:14;100904.44;;;12.08;100.00
72721;BME280;60835;50.974;10.322;2024-01-27T11:26:41;100922.75;;;11.59;100.00
72721;BME280;60835;50.974;10.322;2024-01-27T11:29:08;100921.88;;;11.46;100.00
72721;BME280;60835;50.974;10.322;2024-01-27T11:31:48;100922.34;;;11.65;100.00
72721;BME280;60835;50.974;10.322;2024-01-27T11:34:17;100925.81;;;12.19;100.00
72721;BME280;60835;50.974;10.322;2024-01-27T11:36:45;100918.69;;;12.45;100.00
72721;BME280;60835;50.974;10.322;2024-01-27T11:39:28;100923.81;;;12.48;100.00
72721;BME280;60835;50.974;10.322;2024-01-27T11:42:05;100908.50;;;12.89;100.00
72721;BME280;60835;50.974;10.322;2024-01-27T11:44:39;100925.25;;;11.48;100.00
72721;BME280;60835;50.974;10.322;2024-01-27T11:47:14;100920.38;;;12.08;100.00
72721;BME280;60835;50.974;10.322;2024-01-27T11:49:42;100922.13;;;12.59;100.00
72721;BME280;60835;50.974;10.322;2024-01-27T11:52:11;100946.13;;;12.83;100.00
72721;BME280;60835;50.974;10.322;2024-01-27T11:54:37;100943.75;;;13.16;100.00
72721;BME280;60835;50.974;10.322;2024-01-27T11:57:04;100952.72;;;12.65;100.00
72721;BME280;60835;50.974;10.322;2024-01-27T11:59:33;100940.72;;;11.95;100.00
72721;BME280;60835;50.974;10.322;2024-01-27T12:02:01;100948.44;;;12.25;100.00
72721;BME280;60835;50.974;10.322;2024-01-27T12:04:28;100940.16;;;11.63;100.00
72721;BME280;60835;50.974;10.322;2024-01-27T12:06:55;100922.94;;;12.09;100.00
72721;BME280;60835;50.974;10.322;2024-01-27T12:09:21;100936.22;;;12.22;100.00
72721;BME280;60835;50.974;10.322;2024-01-27T12:11:49;100941.00;;;12.30;100.00
72721;BME280;60835;50.974;10.322;2024-01-27T12:14:16;100950.06;;;12.00;100.00
72721;BME280;60835;50.974;10.322;2024-01-27T12:16:44;100944.63;;;12.92;100.00
72721;BME280;60835;50.974;10.322;2024-01-27T12:19:10;100943.56;;;12.69;100.00
72721;BME280;60835;50.974;10.322;2024-01-27T12:21:38;100942.78;;;13.17;100.00
72721;BME280;60835;50.974;10.322;2024-01-27T12:24:05;100942.06;;;12.77;100.00
72721;BME280;60835;50.974;10.322;2024-01-27T12:26:31;100930.19;;;12.33;100.00
72721;BME280;60835;50.974;10.322;2024-01-27T12:28:59;100940.31;;;12.01;100.00
72721;BME280;60835;50.974;10.322;2024-01-27T12:31:26;100949.19;;;11.20;100.00
72721;BME280;60835;50.974;10.322;2024-01-27T12:33:55;100930.47;;;11.76;100.00
72721;BME280;60835;50.974;10.322;2024-01-27T12:36:22;100924.56;;;13.36;100.00
72721;BME280;60835;50.974;10.322;2024-01-27T12:39:02;100939.81;;;12.08;100.00
72721;BME280;60835;50.974;10.322;2024-01-27T12:41:32;100922.50;;;13.40;100.00